sensor_id;sensor_type;location;lat;lon;timestamp;pressure;altitude;pressure_sealevel;temperature;humidity
16100;BME280;8154;50.830;12.082;2023-05-01T00:06:11;99794.13;;;23.29;34.41
16100;BME280;8154;50.830;12.082;2023-05-01T00:08:36;99795.34;;;23.26;34.54
16100;BME280;8154;50.830;12.082;2023-05-01T00:11:04;99789.91;;;23.34;34.21
16100;BME280;8154;50.830;12.082;2023-05-01T00:13:31;99791.19;;;23.38;34.37
16100;BME280;8154;50.830;12.082;2023-05-01T00:15:57;99785.84;;;23.38;34.14
16100;BME280;8154;50.830;12.082;2023-05-01T00:18:24;99784.63;;;23.41;34.37
16100;BME280;8154;50.830;12.082;2023-05-01T00:20:50;99783.38;;;23.37;34.15
16100;BME280;8154;50.830;12.082;2023-05-01T00:23:16;99773.44;;;23.31;34.39
16100;BME280;8154;50.830;12.082;2023-05-01T00:25:42;99770.22;;;23.35;34.43
16100;BME280;8154;50.830;12.082;2023-05-01T00:28:08;99770.69;;;23.39;34.19
16100;BME280;8154;50.830;12.082;2023-05-01T00:30:35;99768.81;;;23.39;34.36
16100;BME280;8154;50.830;12.082;2023-05-01T00:33:01;99763.09;;;23.42;34.31
16100;BME280;8154;50.830;12.082;2023-05-01T00:35:28;99763.81;;;23.30;34.51
16100;BME280;8154;50.830;12.082;2023-05-01T00:37:55;99761.81;;;23.24;34.65
16100;BME280;8154;50.830;12.082;2023-05-01T00:40:21;99756.78;;;23.29;34.37
16100;BME280;8154;50.830;12.082;2023-05-01T00:42:47;99757.72;;;23.36;34.48
16100;BME280;8154;50.830;12.082;2023-05-01T00:45:19;99760.38;;;23.36;34.24
16100;BME280;8154;50.830;12.082;2023-05-01T00:47:45;99755.47;;;23.39;34.55
16100;BME280;8154;50.830;12.082;2023-05-01T00:50:12;99753.28;;;23.43;34.14
16100;BME280;8154;50.830;12.082;2023-05-01T00:52:39;99750.41;;;23.44;34.15
16100;BME280;8154;50.830;12.082;2023-05-01T00:55:06;99739.94;;;23.43;34.24
16100;BME280;8154;50.830;12.082;2023-05-01T00:57:32;99739.75;;;23.44;34.20
16100;BME280;8154;50.830;12.082;2023-05-01T00:59:58;99738.03;;;23.37;34.13
16100;BME280;8154;50.830;12.082;2023-05-01T01:02:24;99743.00;;;23.25;34.59
16100;BME280;8154;50.830;12.082;2023-05-01T01:04:52;99736.28;;;23.29;34.55
16100;BME280;8154;50.830;12.082;2023-05-01T03:06:54;99626.41;;;23.19;34.76
16100;BME280;8154;50.830;12.082;2023-05-01T03:09:20;99635.16;;;23.13;34.94
16100;BME280;8154;50.830;12.082;2023-05-01T03:11:48;99630.34;;;23.23;34.40
16100;BME280;8154;50.830;12.082;2023-05-01T03:14:14;99620.88;;;23.21;34.76
16100;BME280;8154;50.830;12.082;2023-05-01T03:16:40;99619.34;;;23.26;34.73
16100;BME280;8154;50.830;12.082;2023-05-01T03:19:06;99620.97;;;23.27;34.44
16100;BME280;8154;50.830;12.082;2023-05-01T03:21:32;99624.56;;;23.20;34.74
16100;BME280;8154;50.830;12.082;2023-05-01T03:24:00;99620.44;;;23.17;34.80
16100;BME280;8154;50.830;12.082;2023-05-01T03:26:26;99619.22;;;23.20;34.74
16100;BME280;8154;50.830;12.082;2023-05-01T03:28:53;99611.41;;;23.18;34.62
16100;BME280;8154;50.830;12.082;2023-05-01T03:31:19;99616.31;;;23.15;34.68
16100;BME280;8154;50.830;12.082;2023-05-01T03:33:44;99606.66;;;23.14;34.83
16100;BME280;8154;50.830;12.082;2023-05-01T03:36:11;99608.75;;;23.18;34.72
16100;BME280;8154;50.830;12.082;2023-05-01T03:38:38;99603.63;;;23.17;34.67
16100;BME280;8154;50.830;12.082;2023-05-01T03:41:04;99604.69;;;23.22;34.89
16100;BME280;8154;50.830;12.082;2023-05-01T03:43:30;99604.50;;;23.24;34.94
16100;BME280;8154;50.830;12.082;2023-05-01T03:45:57;99604.50;;;23.24;34.49
16100;BME280;8154;50.830;12.082;2023-05-01T03:48:23;99599.16;;;23.24;34.76
16100;BME280;8154;50.830;12.082;2023-05-01T03:50:50;99603.03;;;23.21;34.75
16100;BME280;8154;50.830;12.082;2023-05-01T03:53:16;99600.94;;;23.17;34.60
16100;BME280;8154;50.830;12.082;2023-05-01T03:55:43;99607.31;;;23.16;34.76
16100;BME280;8154;50.830;12.082;2023-05-01T03:58:09;99609.97;;;23.16;34.97
16100;BME280;8154;50.830;12.082;2023-05-01T04:00:36;99608.88;;;23.10;34.76
16100;BME280;8154;50.830;12.082;2023-05-01T04:03:03;99609.72;;;23.11;34.91
16100;BME280;8154;50.830;12.082;2023-05-01T04:05:29;99604.56;;;23.09;34.87
16100;BME280;8154;50.830;12.082;2023-05-01T05:09:07;99567.94;;;23.18;35.03
16100;BME280;8154;50.830;12.082;2023-05-01T05:11:34;99568.31;;;23.15;34.85
16100;BME280;8154;50.830;12.082;2023-05-01T05:14:00;99569.44;;;23.06;35.09
16100;BME280;8154;50.830;12.082;2023-05-01T05:16:26;99562.72;;;23.10;34.93
16100;BME280;8154;50.830;12.082;2023-05-01T05:18:54;99561.72;;;23.11;35.36
16100;BME280;8154;50.830;12.082;2023-05-01T05:21:22;99560.81;;;23.04;35.37
16100;BME280;8154;50.830;12.082;2023-05-01T05:23:48;99559.16;;;23.03;35.27
16100;BME280;8154;50.830;12.082;2023-05-01T05:26:14;99557.53;;;23.02;35.46
16100;BME280;8154;50.830;12.082;2023-05-01T05:28:40;99555.06;;;23.00;35.48
16100;BME280;8154;50.830;12.082;2023-05-01T05:31:07;99554.88;;;23.02;35.23
16100;BME280;8154;50.830;12.082;2023-05-01T05:33:32;99559.56;;;23.00;35.40
16100;BME280;8154;50.830;12.082;2023-05-01T05:35:58;99557.94;;;23.05;35.42
16100;BME280;8154;50.830;12.082;2023-05-01T05:38:25;99556.38;;;23.11;35.38
16100;BME280;8154;50.830;12.082;2023-05-01T05:40:51;99555.56;;;23.10;35.26
16100;BME280;8154;50.830;12.082;2023-05-01T05:43:19;99554.72;;;23.10;35.11
16100;BME280;8154;50.830;12.082;2023-05-01T05:45:45;99551.44;;;23.08;35.43
16100;BME280;8154;50.830;12.082;2023-05-01T05:48:12;99552.81;;;23.04;35.55
16100;BME280;8154;50.830;12.082;2023-05-01T05:50:38;99555.34;;;23.12;35.45
16100;BME280;8154;50.830;12.082;2023-05-01T05:53:04;99559.31;;;23.16;35.10
16100;BME280;8154;50.830;12.082;2023-05-01T05:55:30;99552.31;;;23.15;35.21
16100;BME280;8154;50.830;12.082;2023-05-01T05:57:57;99552.25;;;23.08;35.40
16100;BME280;8154;50.830;12.082;2023-05-01T06:00:23;99540.00;;;23.14;35.48
16100;BME280;8154;50.830;12.082;2023-05-01T06:02:49;99542.94;;;23.19;35.44
16100;BME280;8154;50.830;12.082;2023-05-01T06:05:16;99555.44;;;23.18;35.26
16100;BME280;8154;50.830;12.082;2023-05-01T12:10:52;99179.44;;;23.59;36.97
16100;BME280;8154;50.830;12.082;2023-05-01T12:13:19;99176.16;;;23.57;36.95
16100;BME280;8154;50.830;12.082;2023-05-01T12:15:49;99181.47;;;23.57;36.82
16100;BME280;8154;50.830;12.082;2023-05-01T12:18:16;99182.50;;;23.56;36.97
16100;BME280;8154;50.830;12.082;2023-05-01T12:20:44;99168.97;;;23.57;37.16
16100;BME280;8154;50.830;12.082;2023-05-01T12:23:13;99171.44;;;23.59;36.96
16100;BME280;8154;50.830;12.082;2023-05-01T12:25:43;99166.09;;;23.59;36.73
16100;BME280;8154;50.830;12.082;2023-05-01T12:28:11;99180.44;;;23.58;37.02
16100;BME280;8154;50.830;12.082;2023-05-01T12:31:01;99173.06;;;23.60;37.03
16100;BME280;8154;50.830;12.082;2023-05-01T12:33:29;99167.72;;;23.60;36.92
16100;BME280;8154;50.830;12.082;2023-05-01T12:36:08;99163.22;;;23.60;36.90
16100;BME280;8154;50.830;12.082;2023-05-01T12:38:36;99164.84;;;23.61;36.95
16100;BME280;8154;50.830;12.082;2023-05-01T12:41:02;99164.84;;;23.61;36.91
16100;BME280;8154;50.830;12.082;2023-05-01T12:43:36;99156.22;;;23.59;37.10
16100;BME280;8154;50.830;12.082;2023-05-01T12:46:04;99152.34;;;23.62;36.73
16100;BME280;8154;50.830;12.082;2023-05-01T12:48:30;99153.16;;;23.62;36.71
16100;BME280;8154;50.830;12.082;2023-05-01T12:50:59;99156.66;;;23.63;36.91
16100;BME280;8154;50.830;12.082;2023-05-01T12:53:27;99153.34;;;23.61;36.75
16100;BME280;8154;50.830;12.082;2023-05-01T12:55:55;99145.34;;;23.61;36.70
16100;BME280;8154;50.830;12.082;2023-05-01T12:58:44;99145.16;;;23.62;36.70
16100;BME280;8154;50.830;12.082;2023-05-01T13:01:11;99147.00;;;23.62;36.63
16100;BME280;8154;50.830;12.082;2023-05-01T13:03:42;99145.34;;;23.61;36.95
16100;BME280;8154;50.830;12.082;2023-05-01T13:06:08;99145.16;;;23.62;36.82
16100;BME280;8154;50.830;12.082;2023-05-01T13:08:38;99139.00;;;23.62;36.77
16100;BME280;8154;50.830;12.082;2023-05-01T14:43:17;99084.00;;;23.67;36.60
16100;BME280;8154;50.830;12.082;2023-05-01T14:45:44;99089.97;;;23.69;36.41
16100;BME280;8154;50.830;12.082;2023-05-01T14:48:22;99097.75;;;23.71;36.47
16100;BME280;8154;50.830;12.082;2023-05-01T14:50:51;99088.13;;;23.70;36.64
16100;BME280;8154;50.830;12.082;2023-05-01T14:53:17;99093.25;;;23.65;36.49
16100;BME280;8154;50.830;12.082;2023-05-01T14:55:43;99085.44;;;23.63;36.51
16100;BME280;8154;50.830;12.082;2023-05-01T14:58:10;99085.47;;;23.70;36.71
16100;BME280;8154;50.830;12.082;2023-05-01T15:00:37;99087.91;;;23.71;36.54
16100;BME280;8154;50.830;12.082;2023-05-01T15:03:03;99092.63;;;23.69;36.35
16100;BME280;8154;50.830;12.082;2023-05-01T15:05:30;99086.88;;;23.66;36.64
16100;BME280;8154;50.830;12.082;2023-05-01T15:07:58;99092.22;;;23.72;36.20
16100;BME280;8154;50.830;12.082;2023-05-01T15:10:28;99085.44;;;23.76;36.44
16100;BME280;8154;50.830;12.082;2023-05-01T15:12:57;99089.97;;;23.76;36.29
16100;BME280;8154;50.830;12.082;2023-05-01T15:15:25;99086.47;;;23.75;36.59
16100;BME280;8154;50.830;12.082;2023-05-01T15:17:52;99085.84;;;23.80;36.36
16100;BME280;8154;50.830;12.082;2023-05-01T15:20:18;99086.47;;;23.82;36.12
16100;BME280;8154;50.830;12.082;2023-05-01T15:22:44;99079.88;;;23.78;36.32
16100;BME280;8154;50.830;12.082;2023-05-01T15:25:10;99083.59;;;23.77;36.06
16100;BME280;8154;50.830;12.082;2023-05-01T15:27:38;99085.22;;;23.78;36.11
16100;BME280;8154;50.830;12.082;2023-05-01T15:30:05;99082.75;;;23.76;35.99
16100;BME280;8154;50.830;12.082;2023-05-01T15:32:36;99090.56;;;23.78;35.97
16100;BME280;8154;50.830;12.082;2023-05-01T15:35:03;99079.09;;;23.77;36.49
16100;BME280;8154;50.830;12.082;2023-05-01T15:37:29;99079.50;;;23.74;36.36
16100;BME280;8154;50.830;12.082;2023-05-01T15:39:56;99079.72;;;23.73;36.29
16100;BME280;8154;50.830;12.082;2023-05-01T15:42:24;99079.28;;;23.76;36.13
16100;BME280;8154;50.830;12.082;2023-05-01T15:44:49;99075.78;;;23.82;36.38
16100;BME280;8154;50.830;12.082;2023-05-01T15:47:16;99074.56;;;23.78;36.18
16100;BME280;8154;50.830;12.082;2023-05-01T15:49:41;99074.56;;;23.78;36.12
16100;BME280;8154;50.830;12.082;2023-05-01T15:52:08;99077.84;;;23.80;36.18
16100;BME280;8154;50.830;12.082;2023-05-01T15:54:34;99070.88;;;23.79;36.34
16100;BME280;8154;50.830;12.082;2023-05-01T15:57:00;99066.53;;;23.78;35.93
16100;BME280;8154;50.830;12.082;2023-05-01T15:59:32;99068.41;;;23.77;36.06
16100;BME280;8154;50.830;12.082;2023-05-01T16:01:59;99068.41;;;23.77;36.23
16100;BME280;8154;50.830;12.082;2023-05-01T16:04:26;99077.22;;;23.78;36.36
16100;BME280;8154;50.830;12.082;2023-05-01T16:06:52;99073.75;;;23.77;36.13
16100;BME280;8154;50.830;12.082;2023-05-01T16:09:29;99074.97;;;23.81;35.93
16100;BME280;8154;50.830;12.082;2023-05-01T17:10:31;99152.38;;;23.68;36.14
16100;BME280;8154;50.830;12.082;2023-05-01T17:12:57;99168.56;;;23.67;36.35
16100;BME280;8154;50.830;12.082;2023-05-01T17:15:23;99166.09;;;23.65;36.13
16100;BME280;8154;50.830;12.082;2023-05-01T17:17:50;99168.16;;;23.70;35.90
16100;BME280;8154;50.830;12.082;2023-05-01T17:20:16;99172.25;;;23.72;35.94
16100;BME280;8154;50.830;12.082;2023-05-01T17:22:42;99178.22;;;23.68;36.14
16100;BME280;8154;50.830;12.082;2023-05-01T17:25:10;99191.97;;;23.65;36.20
16100;BME280;8154;50.830;12.082;2023-05-01T17:27:37;99184.19;;;23.70;35.88
16100;BME280;8154;50.830;12.082;2023-05-01T17:30:05;99191.56;;;23.74;36.04
16100;BME280;8154;50.830;12.082;2023-05-01T17:32:31;99189.31;;;23.71;36.18
16100;BME280;8154;50.830;12.082;2023-05-01T17:34:58;99195.84;;;23.69;36.04
16100;BME280;8154;50.830;12.082;2023-05-01T17:37:23;99199.75;;;23.66;36.13
16100;BME280;8154;50.830;12.082;2023-05-01T17:39:50;99204.25;;;23.66;35.94
16100;BME280;8154;50.830;12.082;2023-05-01T17:42:16;99210.44;;;23.73;36.07
16100;BME280;8154;50.830;12.082;2023-05-01T17:44:42;99213.72;;;23.75;35.96
16100;BME280;8154;50.830;12.082;2023-05-01T17:47:08;99221.94;;;23.73;35.85
16100;BME280;8154;50.830;12.082;2023-05-01T17:49:35;99215.16;;;23.71;35.70
16100;BME280;8154;50.830;12.082;2023-05-01T17:52:00;99215.38;;;23.76;35.80
16100;BME280;8154;50.830;12.082;2023-05-01T17:54:27;99218.06;;;23.76;35.53
16100;BME280;8154;50.830;12.082;2023-05-01T17:56:54;99217.22;;;23.75;35.91
16100;BME280;8154;50.830;12.082;2023-05-01T17:59:21;99207.78;;;23.73;35.98
16100;BME280;8154;50.830;12.082;2023-05-01T18:01:47;99215.59;;;23.74;35.88
16100;BME280;8154;50.830;12.082;2023-05-01T18:04:13;99217.44;;;23.74;35.99
16100;BME280;8154;50.830;12.082;2023-05-01T18:06:40;99228.50;;;23.71;36.01
16100;BME280;8154;50.830;12.082;2023-05-01T18:09:06;99226.88;;;23.70;35.96
16100;BME280;8154;50.830;12.082;2023-05-01T18:11:33;99225.63;;;23.72;35.64
16100;BME280;8154;50.830;12.082;2023-05-01T18:13:59;99224.41;;;23.75;35.67
16100;BME280;8154;50.830;12.082;2023-05-01T18:16:26;99221.13;;;23.73;35.87
16100;BME280;8154;50.830;12.082;2023-05-01T18:18:53;99221.13;;;23.73;35.92
16100;BME280;8154;50.830;12.082;2023-05-01T18:21:20;99226.06;;;23.76;35.87
16100;BME280;8154;50.830;12.082;2023-05-01T18:23:49;99232.41;;;23.75;35.97
16100;BME280;8154;50.830;12.082;2023-05-01T18:26:16;99230.56;;;23.75;35.46
16100;BME280;8154;50.830;12.082;2023-05-01T18:28:44;99223.59;;;23.74;35.56
16100;BME280;8154;50.830;12.082;2023-05-01T18:31:13;99227.25;;;23.73;35.89
16100;BME280;8154;50.830;12.082;2023-05-01T18:33:40;99231.59;;;23.74;35.67
16100;BME280;8154;50.830;12.082;2023-05-01T18:36:08;99231.81;;;23.73;35.96
16100;BME280;8154;50.830;12.082;2023-05-01T18:38:41;99235.69;;;23.77;35.68
16100;BME280;8154;50.830;12.082;2023-05-01T18:41:07;99232.41;;;23.75;35.75
16100;BME280;8154;50.830;12.082;2023-05-01T18:43:33;99237.13;;;23.73;35.49
16100;BME280;8154;50.830;12.082;2023-05-01T18:46:04;99235.47;;;23.72;35.84
16100;BME280;8154;50.830;12.082;2023-05-01T18:48:30;99225.63;;;23.72;35.75
16100;BME280;8154;50.830;12.082;2023-05-01T18:50:58;99228.31;;;23.72;35.79
16100;BME280;8154;50.830;12.082;2023-05-01T18:53:26;99229.13;;;23.73;35.72
16100;BME280;8154;50.830;12.082;2023-05-01T18:55:53;99237.72;;;23.75;35.51
16100;BME280;8154;50.830;12.082;2023-05-01T18:58:24;99237.72;;;23.75;35.51
16100;BME280;8154;50.830;12.082;2023-05-01T19:00:54;99232.59;;;23.73;35.57
16100;BME280;8154;50.830;12.082;2023-05-01T19:03:20;99238.16;;;23.72;35.57
16100;BME280;8154;50.830;12.082;2023-05-01T19:05:47;99239.81;;;23.73;35.47
16100;BME280;8154;50.830;12.082;2023-05-01T19:08:15;99243.91;;;23.75;35.64
16100;BME280;8154;50.830;12.082;2023-05-01T19:10:41;99248.22;;;23.76;35.64
16100;BME280;8154;50.830;12.082;2023-05-01T19:13:09;99252.75;;;23.76;35.36
16100;BME280;8154;50.830;12.082;2023-05-01T19:15:42;99259.09;;;23.75;35.44
16100;BME280;8154;50.830;12.082;2023-05-01T19:18:08;99250.28;;;23.74;35.50
16100;BME280;8154;50.830;12.082;2023-05-01T19:20:36;99249.44;;;23.74;35.65
16100;BME280;8154;50.830;12.082;2023-05-01T19:23:02;99255.00;;;23.72;35.65
16100;BME280;8154;50.830;12.082;2023-05-01T19:25:30;99255.81;;;23.73;35.53
16100;BME280;8154;50.830;12.082;2023-05-01T19:27:59;99254.78;;;23.74;35.63
16100;BME280;8154;50.830;12.082;2023-05-01T19:30:27;99253.53;;;23.76;35.26
16100;BME280;8154;50.830;12.082;2023-05-01T19:32:53;99247.41;;;23.76;35.19
16100;BME280;8154;50.830;12.082;2023-05-01T19:35:21;99241.25;;;23.75;35.57
16100;BME280;8154;50.830;12.082;2023-05-01T19:37:53;99249.03;;;23.77;35.40
16100;BME280;8154;50.830;12.082;2023-05-01T19:40:21;99256.00;;;23.78;35.67
16100;BME280;8154;50.830;12.082;2023-05-01T19:42:48;99254.38;;;23.77;35.38
16100;BME280;8154;50.830;12.082;2023-05-01T19:45:15;99243.69;;;23.77;35.51
16100;BME280;8154;50.830;12.082;2023-05-01T19:47:42;99245.75;;;23.75;35.45
16100;BME280;8154;50.830;12.082;2023-05-01T19:50:09;99246.56;;;23.75;35.59
16100;BME280;8154;50.830;12.082;2023-05-01T19:52:51;99254.38;;;23.77;35.37
16100;BME280;8154;50.830;12.082;2023-05-01T19:55:20;99246.16;;;23.78;35.25
16100;BME280;8154;50.830;12.082;2023-05-01T19:57:46;99244.53;;;23.77;35.49
16100;BME280;8154;50.830;12.082;2023-05-01T20:00:13;99247.41;;;23.76;35.48
16100;BME280;8154;50.830;12.082;2023-05-01T20:02:39;99247.41;;;23.76;35.30
16100;BME280;8154;50.830;12.082;2023-05-01T20:05:11;99246.38;;;23.77;35.60
16100;BME280;8154;50.830;12.082;2023-05-01T20:07:38;99251.09;;;23.75;35.37
16100;BME280;8154;50.830;12.082;2023-05-01T20:10:16;99247.41;;;23.76;35.22
16100;BME280;8154;50.830;12.082;2023-05-01T20:12:54;99247.22;;;23.77;35.07
16100;BME280;8154;50.830;12.082;2023-05-01T20:15:22;99250.06;;;23.76;35.28
16100;BME280;8154;50.830;12.082;2023-05-01T20:17:50;99252.75;;;23.76;35.49
16100;BME280;8154;50.830;12.082;2023-05-01T20:20:18;99254.19;;;23.78;35.12
16100;BME280;8154;50.830;12.082;2023-05-01T20:22:45;99249.88;;;23.77;35.13
16100;BME280;8154;50.830;12.082;2023-05-01T20:25:12;99247.41;;;23.76;35.19
16100;BME280;8154;50.830;12.082;2023-05-01T20:27:39;99252.75;;;23.76;35.24
16100;BME280;8154;50.830;12.082;2023-05-01T20:30:10;99253.34;;;23.78;35.22
16100;BME280;8154;50.830;12.082;2023-05-01T20:32:36;99258.88;;;23.76;35.24
16100;BME280;8154;50.830;12.082;2023-05-01T20:35:11;99256.84;;;23.78;35.18
16100;BME280;8154;50.830;12.082;2023-05-01T20:37:39;99264.00;;;23.78;35.08
16100;BME280;8154;50.830;12.082;2023-05-01T20:40:06;99252.53;;;23.77;35.38
16100;BME280;8154;50.830;12.082;2023-05-01T20:42:56;99251.09;;;23.75;35.26
16100;BME280;8154;50.830;12.082;2023-05-01T20:45:27;99260.94;;;23.74;35.56
16100;BME280;8154;50.830;12.082;2023-05-01T20:47:58;99267.72;;;23.77;35.23
16100;BME280;8154;50.830;12.082;2023-05-01T20:50:27;99266.47;;;23.79;35.09
16100;BME280;8154;50.830;12.082;2023-05-01T20:52:53;99272.03;;;23.78;35.31
16100;BME280;8154;50.830;12.082;2023-05-01T20:55:20;99270.38;;;23.77;35.33
16100;BME280;8154;50.830;12.082;2023-05-01T20:57:47;99273.06;;;23.77;35.04
16100;BME280;8154;50.830;12.082;2023-05-01T21:00:14;99274.09;;;23.76;35.39
16100;BME280;8154;50.830;12.082;2023-05-01T21:02:40;99271.22;;;23.77;35.18
16100;BME280;8154;50.830;12.082;2023-05-01T21:05:07;99260.75;;;23.76;35.30
16100;BME280;8154;50.830;12.082;2023-05-01T21:07:35;99272.84;;;23.78;35.05
16100;BME280;8154;50.830;12.082;2023-05-01T21:10:05;99266.09;;;23.76;35.18
16100;BME280;8154;50.830;12.082;2023-05-01T21:12:32;99271.22;;;23.77;35.24
16100;BME280;8154;50.830;12.082;2023-05-01T21:15:03;99270.78;;;23.74;35.31
16100;BME280;8154;50.830;12.082;2023-05-01T21:17:34;99273.47;;;23.74;35.11
16100;BME280;8154;50.830;12.082;2023-05-01T21:20:03;99275.09;;;23.75;35.20
16100;BME280;8154;50.830;12.082;2023-05-01T21:22:34;99274.69;;;23.78;35.42
